Palchem 1 — 9HA2097 — position and weather

sailwx.info

Track history (hours):
 
Tides and Currents Weather Stations Pressure Air Temp Water Temp Dewpoint Dewpoint Depression Visibility Wind Speed Wind Dir Waves Ship Positions

Palchem 1

Last reported at 2017-Jan-17 02:33 UTC. Time now 2017-Jan-17 04:54 UTC.
Position N 39°48' E 024°15'.

Length 143 m; draft 6.3 m.

Type: Ship. MMSI: 249955000.

Date/timePositionNaut miles runAvg speedWind from/ knotsBaromVisibWave heightAir tempDewpointWater temp
2017-Jan-17 02:33N 39°48' E 024°15'10 9.2
2017-Jan-17 01:31N 39°48' E 024°03'  
2017-Jan-14 11:09N 39°42' E 023°56'710.3
2017-Jan-14 10:31N 39°40' E 024°04'1010.3
2017-Jan-14 09:33N 39°35' E 024°16'119 9.2
2017-Jan-13 20:32N 37°36' E 024°03'1111.3
2017-Jan-13 19:33N 37°38' E 023°49'1010.4
2017-Jan-13 18:33N 37°45' E 023°40'1111.2
2017-Jan-13 17:33N 37°56' E 023°36'7 6.7
2017-Jan-13 16:33N 38°01' E 023°32'0 0.4
2017-Jan-13 15:33N 38°02' E 023°31'1 0.6
2017-Jan-13 14:28N 38°02' E 023°31'0 0.0
2017-Jan-13 13:31N 38°02' E 023°31'0 0.0
2017-Jan-13 12:31N 38°02' E 023°31'0 0.0
2017-Jan-13 11:31N 38°02' E 023°31'0 0.0
2017-Jan-13 10:31N 38°02' E 023°31'0 0.0
2017-Jan-13 09:31N 38°02' E 023°31'0 0.0
2017-Jan-13 08:31N 38°02' E 023°31'0 0.0
2017-Jan-13 07:31N 38°02' E 023°31'0 0.0
2017-Jan-13 06:31N 38°02' E 023°31'0 0.0
2017-Jan-13 05:33N 38°02' E 023°31'0 0.0
2017-Jan-13 04:31N 38°02' E 023°31'0 0.0
2017-Jan-13 03:32N 38°02' E 023°31'0 0.0
2017-Jan-13 02:28N 38°02' E 023°31'0 0.0
2017-Jan-13 01:31N 38°02' E 023°31'0 0.0
2017-Jan-13 00:31N 38°02' E 023°31'0 0.0
2017-Jan-12 23:31N 38°02' E 023°31'0 0.0
2017-Jan-12 22:31N 38°02' E 023°31'0 0.0
2017-Jan-12 21:31N 38°02' E 023°31'0 0.0
2017-Jan-12 20:31N 38°02' E 023°31'0 0.0
2017-Jan-12 19:31N 38°02' E 023°31'0 0.0
2017-Jan-12 18:31N 38°02' E 023°31'0 0.0
2017-Jan-12 17:31N 38°02' E 023°31'0 0.0
2017-Jan-12 16:34N 38°02' E 023°31'3 3.2
2017-Jan-12 15:34N 37°59' E 023°33'6 5.7
2017-Jan-12 14:33N 37°55' E 023°37'1 0.9
2017-Jan-12 13:33N 37°55' E 023°36'4 4.0
2017-Jan-12 12:32N 37°52' E 023°32'0 0.0
2017-Jan-12 11:31N 37°52' E 023°32'0 0.0
2017-Jan-12 10:31N 37°52' E 023°32'0 0.0
2017-Jan-12 09:31N 37°52' E 023°32'0 0.0
2017-Jan-12 08:31N 37°52' E 023°32'0 0.0
2017-Jan-12 07:31N 37°52' E 023°32'0 0.0
2017-Jan-12 06:31N 37°52' E 023°32'0 0.0
2017-Jan-12 05:31N 37°52' E 023°32'0 0.0
2017-Jan-12 04:31N 37°52' E 023°32'0 0.0
2017-Jan-12 03:31N 37°52' E 023°32'0 0.0
2017-Jan-12 02:31N 37°52' E 023°32'0 0.0
2017-Jan-12 01:31N 37°52' E 023°32'0 0.1
2017-Jan-12 00:32N 37°52' E 023°32'0 0.1
2017-Jan-11 23:32N 37°52' E 023°32'0 0.0
2017-Jan-11 22:31N 37°52' E 023°32'0 0.0
2017-Jan-11 21:33N 37°52' E 023°32'0 0.0
2017-Jan-11 20:32N 37°52' E 023°32'0 0.0
2017-Jan-11 19:33N 37°52' E 023°32'0 0.0
2017-Jan-11 18:32N 37°52' E 023°32'0 0.0
2017-Jan-11 17:31N 37°52' E 023°32'0 0.0
2017-Jan-11 16:31N 37°52' E 023°32'0 0.0
2017-Jan-11 15:32N 37°52' E 023°32'0 0.0
2017-Jan-11 14:32N 37°52' E 023°32'0 0.0
2017-Jan-11 13:32N 37°52' E 023°32'0 0.0
2017-Jan-11 12:31N 37°52' E 023°32'0 0.4
2017-Jan-11 11:33N 37°52' E 023°33'6 5.6
2017-Jan-11 10:33N 37°51' E 023°39'1110.7
2017-Jan-11 09:34N 37°41' E 023°45'1111.2
2017-Jan-11 08:33N 37°30' E 023°47'44010.5
2017-Jan-09 14:32N 35°57' E 014°51'0 0.1
2017-Jan-09 11:31N 35°56' E 014°50'0 0.0
2017-Jan-09 10:31N 35°56' E 014°50'0 0.0
2017-Jan-09 09:31N 35°56' E 014°50'0 0.0
2017-Jan-09 08:31N 35°56' E 014°50'0 0.0
2017-Jan-09 07:31N 35°56' E 014°50'0 0.0
2017-Jan-09 06:31N 35°56' E 014°51'0 0.0
2017-Jan-09 05:28N 35°56' E 014°50'0 0.0
2017-Jan-09 04:28N 35°56' E 014°51'0 0.0
2017-Jan-09 03:31N 35°56' E 014°51'0 0.0
2017-Jan-09 02:19N 35°56' E 014°51'0 0.0
2017-Jan-09 01:28N 35°56' E 014°51'0 0.0
2017-Jan-09 00:31N 35°56' E 014°51'0 0.0
2017-Jan-08 23:31N 35°56' E 014°51'0 0.0
2017-Jan-08 22:19N 35°56' E 014°51'0 0.0
2017-Jan-08 21:28N 35°56' E 014°51'0 0.0
2017-Jan-08 20:31N 35°56' E 014°51'0 0.0
2017-Jan-08 18:31N 35°56' E 014°51'0 0.0
2017-Jan-08 17:22N 35°56' E 014°51'0 0.0
2017-Jan-08 16:11N 35°56' E 014°51'0 0.0
2017-Jan-08 15:26N 35°56' E 014°51'0 0.0
2017-Jan-08 14:33N 35°56' E 014°51'0 0.0
2017-Jan-08 13:33N 35°56' E 014°51'0 0.0
2017-Jan-08 12:33N 35°56' E 014°51'0 0.0
2017-Jan-08 11:32N 35°56' E 014°51'0 0.0
2017-Jan-08 10:20N 35°56' E 014°51'0 0.0
2017-Jan-08 09:33N 35°56' E 014°51'0 0.0
2017-Jan-08 08:31N 35°56' E 014°51'0 0.0
2017-Jan-08 07:33N 35°56' E 014°51'0 0.0
2017-Jan-08 06:33N 35°56' E 014°51'0 0.0
2017-Jan-08 05:29N 35°56' E 014°51'0 0.0
2017-Jan-08 04:32N 35°56' E 014°51'0 0.0
2017-Jan-08 03:32N 35°56' E 014°51'0 0.0
2017-Jan-08 02:32N 35°56' E 014°51'0 0.0
2017-Jan-08 01:31N 35°56' E 014°51'0 0.0
2017-Jan-08 00:34N 35°56' E 014°51'0 0.0
2017-Jan-07 23:28N 35°56' E 014°51'0 0.0
2017-Jan-07 22:29N 35°56' E 014°51'0 0.0
2017-Jan-07 21:30N 35°56' E 014°51'0 0.0
2017-Jan-07 20:32N 35°56' E 014°51'0 0.0
2017-Jan-07 19:27N 35°56' E 014°51'0 0.0
2017-Jan-07 18:33N 35°56' E 014°51'0 0.0
2017-Jan-07 17:32N 35°56' E 014°51'0 0.0
2017-Jan-07 16:32N 35°56' E 014°51'0 0.0
2017-Jan-07 15:33N 35°56' E 014°51'0 0.0
2017-Jan-07 14:32N 35°56' E 014°51'0 0.0
2017-Jan-07 13:33N 35°56' E 014°51'0 0.0
2017-Jan-07 12:33N 35°56' E 014°51'0 0.0
2017-Jan-07 11:32N 35°56' E 014°51'0 0.0
2017-Jan-07 10:33N 35°56' E 014°51'0 0.0
2017-Jan-07 09:33N 35°56' E 014°51'0 0.0
2017-Jan-07 08:33N 35°56' E 014°51'0 0.0
2017-Jan-07 07:33N 35°56' E 014°51'0 0.0
2017-Jan-07 06:33N 35°56' E 014°51'0 0.0
2017-Jan-07 05:32N 35°56' E 014°51'0 0.0
2017-Jan-07 04:33N 35°56' E 014°51'0 0.0
2017-Jan-07 03:26N 35°56' E 014°51'  
Track history (hours):
 
Tides and Currents Weather Stations Pressure Air Temp Water Temp Dewpoint Dewpoint Depression Visibility Wind Speed Wind Dir Waves Ship Positions

Palchem 1

Last reported at 2017-Jan-17 02:33 UTC. Time now 2017-Jan-17 04:54 UTC.
Position N 39°48' E 024°15'.

Length 143 m; draft 6.3 m.

Type: Ship. MMSI: 249955000.

Date/timePositionNaut miles runAvg speedWind from/ knotsBaromVisibWave heightAir tempDewpointWater temp
2017-Jan-17 02:33N 39°48' E 024°15'10 9.2
2017-Jan-17 01:31N 39°48' E 024°03'  
2017-Jan-14 11:09N 39°42' E 023°56'710.3
2017-Jan-14 10:31N 39°40' E 024°04'1010.3
2017-Jan-14 09:33N 39°35' E 024°16'119 9.2
2017-Jan-13 20:32N 37°36' E 024°03'1111.3
2017-Jan-13 19:33N 37°38' E 023°49'1010.4
2017-Jan-13 18:33N 37°45' E 023°40'1111.2
2017-Jan-13 17:33N 37°56' E 023°36'7 6.7
2017-Jan-13 16:33N 38°01' E 023°32'0 0.4
2017-Jan-13 15:33N 38°02' E 023°31'1 0.6
2017-Jan-13 14:28N 38°02' E 023°31'0 0.0
2017-Jan-13 13:31N 38°02' E 023°31'0 0.0
2017-Jan-13 12:31N 38°02' E 023°31'0 0.0
2017-Jan-13 11:31N 38°02' E 023°31'0 0.0
2017-Jan-13 10:31N 38°02' E 023°31'0 0.0
2017-Jan-13 09:31N 38°02' E 023°31'0 0.0
2017-Jan-13 08:31N 38°02' E 023°31'0 0.0
2017-Jan-13 07:31N 38°02' E 023°31'0 0.0
2017-Jan-13 06:31N 38°02' E 023°31'0 0.0
2017-Jan-13 05:33N 38°02' E 023°31'0 0.0
2017-Jan-13 04:31N 38°02' E 023°31'0 0.0
2017-Jan-13 03:32N 38°02' E 023°31'0 0.0
2017-Jan-13 02:28N 38°02' E 023°31'0 0.0
2017-Jan-13 01:31N 38°02' E 023°31'0 0.0
2017-Jan-13 00:31N 38°02' E 023°31'0 0.0
2017-Jan-12 23:31N 38°02' E 023°31'0 0.0
2017-Jan-12 22:31N 38°02' E 023°31'0 0.0
2017-Jan-12 21:31N 38°02' E 023°31'0 0.0
2017-Jan-12 20:31N 38°02' E 023°31'0 0.0
2017-Jan-12 19:31N 38°02' E 023°31'0 0.0
2017-Jan-12 18:31N 38°02' E 023°31'0 0.0
2017-Jan-12 17:31N 38°02' E 023°31'0 0.0
2017-Jan-12 16:34N 38°02' E 023°31'3 3.2
2017-Jan-12 15:34N 37°59' E 023°33'6 5.7
2017-Jan-12 14:33N 37°55' E 023°37'1 0.9
2017-Jan-12 13:33N 37°55' E 023°36'4 4.0
2017-Jan-12 12:32N 37°52' E 023°32'0 0.0
2017-Jan-12 11:31N 37°52' E 023°32'0 0.0
2017-Jan-12 10:31N 37°52' E 023°32'0 0.0
2017-Jan-12 09:31N 37°52' E 023°32'0 0.0
2017-Jan-12 08:31N 37°52' E 023°32'0 0.0
2017-Jan-12 07:31N 37°52' E 023°32'0 0.0
2017-Jan-12 06:31N 37°52' E 023°32'0 0.0
2017-Jan-12 05:31N 37°52' E 023°32'0 0.0
2017-Jan-12 04:31N 37°52' E 023°32'0 0.0
2017-Jan-12 03:31N 37°52' E 023°32'0 0.0
2017-Jan-12 02:31N 37°52' E 023°32'0 0.0
2017-Jan-12 01:31N 37°52' E 023°32'0 0.1
2017-Jan-12 00:32N 37°52' E 023°32'0 0.1
2017-Jan-11 23:32N 37°52' E 023°32'0 0.0
2017-Jan-11 22:31N 37°52' E 023°32'0 0.0
2017-Jan-11 21:33N 37°52' E 023°32'0 0.0
2017-Jan-11 20:32N 37°52' E 023°32'0 0.0
2017-Jan-11 19:33N 37°52' E 023°32'0 0.0
2017-Jan-11 18:32N 37°52' E 023°32'0 0.0
2017-Jan-11 17:31N 37°52' E 023°32'0 0.0
2017-Jan-11 16:31N 37°52' E 023°32'0 0.0
2017-Jan-11 15:32N 37°52' E 023°32'0 0.0
2017-Jan-11 14:32N 37°52' E 023°32'0 0.0
2017-Jan-11 13:32N 37°52' E 023°32'0 0.0
2017-Jan-11 12:31N 37°52' E 023°32'0 0.4
2017-Jan-11 11:33N 37°52' E 023°33'6 5.6
2017-Jan-11 10:33N 37°51' E 023°39'1110.7
2017-Jan-11 09:34N 37°41' E 023°45'1111.2
2017-Jan-11 08:33N 37°30' E 023°47'44010.5
2017-Jan-09 14:32N 35°57' E 014°51'0 0.1
2017-Jan-09 11:31N 35°56' E 014°50'0 0.0
2017-Jan-09 10:31N 35°56' E 014°50'0 0.0
2017-Jan-09 09:31N 35°56' E 014°50'0 0.0
2017-Jan-09 08:31N 35°56' E 014°50'0 0.0
2017-Jan-09 07:31N 35°56' E 014°50'0 0.0
2017-Jan-09 06:31N 35°56' E 014°51'0 0.0
2017-Jan-09 05:28N 35°56' E 014°50'0 0.0
2017-Jan-09 04:28N 35°56' E 014°51'0 0.0
2017-Jan-09 03:31N 35°56' E 014°51'0 0.0
2017-Jan-09 02:19N 35°56' E 014°51'0 0.0
2017-Jan-09 01:28N 35°56' E 014°51'0 0.0
2017-Jan-09 00:31N 35°56' E 014°51'0 0.0
2017-Jan-08 23:31N 35°56' E 014°51'0 0.0
2017-Jan-08 22:19N 35°56' E 014°51'0 0.0
2017-Jan-08 21:28N 35°56' E 014°51'0 0.0
2017-Jan-08 20:31N 35°56' E 014°51'0 0.0
2017-Jan-08 18:31N 35°56' E 014°51'0 0.0
2017-Jan-08 17:22N 35°56' E 014°51'0 0.0
2017-Jan-08 16:11N 35°56' E 014°51'0 0.0
2017-Jan-08 15:26N 35°56' E 014°51'0 0.0
2017-Jan-08 14:33N 35°56' E 014°51'0 0.0
2017-Jan-08 13:33N 35°56' E 014°51'0 0.0
2017-Jan-08 12:33N 35°56' E 014°51'0 0.0
2017-Jan-08 11:32N 35°56' E 014°51'0 0.0
2017-Jan-08 10:20N 35°56' E 014°51'0 0.0
2017-Jan-08 09:33N 35°56' E 014°51'0 0.0
2017-Jan-08 08:31N 35°56' E 014°51'0 0.0
2017-Jan-08 07:33N 35°56' E 014°51'0 0.0
2017-Jan-08 06:33N 35°56' E 014°51'0 0.0
2017-Jan-08 05:29N 35°56' E 014°51'0 0.0
2017-Jan-08 04:32N 35°56' E 014°51'0 0.0
2017-Jan-08 03:32N 35°56' E 014°51'0 0.0
2017-Jan-08 02:32N 35°56' E 014°51'0 0.0
2017-Jan-08 01:31N 35°56' E 014°51'0 0.0
2017-Jan-08 00:34N 35°56' E 014°51'0 0.0
2017-Jan-07 23:28N 35°56' E 014°51'0 0.0
2017-Jan-07 22:29N 35°56' E 014°51'0 0.0
2017-Jan-07 21:30N 35°56' E 014°51'0 0.0
2017-Jan-07 20:32N 35°56' E 014°51'0 0.0
2017-Jan-07 19:27N 35°56' E 014°51'0 0.0
2017-Jan-07 18:33N 35°56' E 014°51'0 0.0
2017-Jan-07 17:32N 35°56' E 014°51'0 0.0
2017-Jan-07 16:32N 35°56' E 014°51'0 0.0
2017-Jan-07 15:33N 35°56' E 014°51'0 0.0
2017-Jan-07 14:32N 35°56' E 014°51'0 0.0
2017-Jan-07 13:33N 35°56' E 014°51'0 0.0
2017-Jan-07 12:33N 35°56' E 014°51'0 0.0
2017-Jan-07 11:32N 35°56' E 014°51'0 0.0
2017-Jan-07 10:33N 35°56' E 014°51'0 0.0
2017-Jan-07 09:33N 35°56' E 014°51'0 0.0
2017-Jan-07 08:33N 35°56' E 014°51'0 0.0
2017-Jan-07 07:33N 35°56' E 014°51'0 0.0
2017-Jan-07 06:33N 35°56' E 014°51'0 0.0
2017-Jan-07 05:32N 35°56' E 014°51'0 0.0
2017-Jan-07 04:33N 35°56' E 014°51'0 0.0
2017-Jan-07 03:26N 35°56' E 014°51'  

Dump ship's entire track history